Airfield :
LOGIN :

Register | Disclaimer

   EN    FR    IT 

 










Legend :    VFR   Marginal VFR   IFR   Intensive IFR   Very Intensive IFR
Visi :
Ceiling :
>= 8 km
>= 3000ft
5 to 8 km
1000 to 3000 ft
1500m to 5 km
500 to 1000 ft
800 to 1500m
200 to 500 ft
< 800m
< 200 ft
Symbols :   Thunderstorms  Fog  Heavy snow  Heavy precipitations  Wind > 20 kt
SIGMETs :     Misc.  Thunderstorms  Icing  Turbulence  Mountain Waves  Volcanic Ashes







- Airport Elevation : 52 ft
- IATA code : RNN


EKRN - Bornholm Ronne

CURRENT METAR :
  • 152050Z AUTO 31002KT 9999NDV NCD 17/15 Q1015

EXPIRED METARs :
  • 152020Z AUTO 32002KT 9999NDV NCD 18/16 Q1015
  • 151950Z AUTO 30003KT 9999NDV NCD 19/16 Q1015
  • 151920Z AUTO 29005KT 9999NDV NCD 19/16 Q1015
  • 151850Z AUTO 30004KT 9999NDV NCD 19/16 Q1015
  • 151820Z AUTO 29004KT 9999NDV NCD 20/17 Q1015

TAF TAF EKRN
Valid from the 15 at 18:00 until the 15 at 22:00 UTC


151713Z 1518/1522 32008KT CAVOK
No reported NOTAMs for that airfield.



MET'MAP, your aeronautical weather chart ! - Copyright ORBIFLY December 2007 - Disclaimer

ORBIFLY MET'MAP TEAM :

Programming & Development : Alexandra Zaïnal
Concept & Development : Baudouin d'Aumeries
Co-Development & Prog : Marc-Olivier Méhu
Technical & hardware support : Manuel Goepfert

Contact : metmap@orbifly.com




SOURCES & CREDITS :

   NOAA